sensor_id;sensor_type;location;lat;lon;timestamp;pressure;altitude;pressure_sealevel;temperature;humidity
73551;BME280;61816;53.582;10.096;2023-02-13T00:00:07;54629.38;;;-144.73;99.55
73551;BME280;61816;53.582;10.096;2023-02-13T00:02:33;54682.75;;;-144.73;100.00
73551;BME280;61816;53.582;10.096;2023-02-13T00:04:59;54637.59;;;-144.73;99.55
73551;BME280;61816;53.582;10.096;2023-02-13T00:07:24;54658.13;;;-144.73;99.57
73551;BME280;61816;53.582;10.096;2023-02-13T00:09:49;54649.91;;;-144.73;99.81
73551;BME280;61816;53.582;10.096;2023-02-13T00:12:15;54633.47;;;-144.73;99.63
73551;BME280;61816;53.582;10.096;2023-02-13T00:14:40;54670.44;;;-144.73;99.17
73551;BME280;61816;53.582;10.096;2023-02-13T00:17:06;54688.91;;;-144.73;99.42
73551;BME280;61816;53.582;10.096;2023-02-13T00:19:32;54682.75;;;-144.73;100.00
73551;BME280;61816;53.582;10.096;2023-02-13T00:21:57;54682.75;;;-144.73;99.32
73551;BME280;61816;53.582;10.096;2023-02-13T00:24:23;54645.78;;;-144.73;99.71
73551;BME280;61816;53.582;10.096;2023-02-13T00:26:48;54637.59;;;-144.73;99.65
73551;BME280;61816;53.582;10.096;2023-02-13T00:29:13;54701.22;;;-144.73;99.95
73551;BME280;61816;53.582;10.096;2023-02-13T00:31:39;54658.13;;;-144.73;100.00
73551;BME280;61816;53.582;10.096;2023-02-13T00:34:04;54670.44;;;-144.73;99.93
73551;BME280;61816;53.582;10.096;2023-02-13T00:36:30;54690.97;;;-144.73;100.00
73551;BME280;61816;53.582;10.096;2023-02-13T00:38:55;54645.78;;;-144.73;100.00
73551;BME280;61816;53.582;10.096;2023-02-13T00:41:21;54621.16;;;-144.73;100.00
73551;BME280;61816;53.582;10.096;2023-02-13T00:43:47;54670.44;;;-144.73;100.00
73551;BME280;61816;53.582;10.096;2023-02-13T00:46:13;54670.44;;;-144.73;99.88
73551;BME280;61816;53.582;10.096;2023-02-13T00:48:39;54635.53;;;-144.73;99.93
73551;BME280;61816;53.582;10.096;2023-02-13T00:51:05;54686.84;;;-144.73;100.00
73551;BME280;61816;53.582;10.096;2023-02-13T00:53:31;54670.44;;;-144.73;100.00
73551;BME280;61816;53.582;10.096;2023-02-13T00:55:57;54641.69;;;-144.73;100.00
73551;BME280;61816;53.582;10.096;2023-02-13T00:58:23;54686.84;;;-144.73;99.60
73551;BME280;61816;53.582;10.096;2023-02-13T01:00:50;54690.97;;;-144.73;99.22
73551;BME280;61816;53.582;10.096;2023-02-13T01:03:16;54686.84;;;-144.73;99.98
73551;BME280;61816;53.582;10.096;2023-02-13T01:05:42;54686.84;;;-144.73;99.41
73551;BME280;61816;53.582;10.096;2023-02-13T01:08:09;54637.59;;;-144.73;100.00
73551;BME280;61816;53.582;10.096;2023-02-13T01:10:39;54670.44;;;-144.73;99.79
73551;BME280;61816;53.582;10.096;2023-02-13T01:13:05;54658.13;;;-144.73;99.91
73551;BME280;61816;53.582;10.096;2023-02-13T01:15:31;54690.97;;;-144.73;99.93
73551;BME280;61816;53.582;10.096;2023-02-13T01:17:57;54643.75;;;-144.73;99.57
73551;BME280;61816;53.582;10.096;2023-02-13T01:20:24;54703.28;;;-144.73;99.94
73551;BME280;61816;53.582;10.096;2023-02-13T01:22:49;54604.75;;;-144.73;99.55
73551;BME280;61816;53.582;10.096;2023-02-13T01:25:15;54643.75;;;-144.73;99.81
73551;BME280;61816;53.582;10.096;2023-02-13T01:27:41;54674.53;;;-144.73;99.63
73551;BME280;61816;53.582;10.096;2023-02-13T01:30:07;54658.13;;;-144.73;99.37
73551;BME280;61816;53.582;10.096;2023-02-13T01:32:36;54684.78;;;-144.73;99.14
73551;BME280;61816;53.582;10.096;2023-02-13T01:35:02;54629.38;;;-144.73;99.43
73551;BME280;61816;53.582;10.096;2023-02-13T01:37:27;54645.78;;;-144.73;99.75
73551;BME280;61816;53.582;10.096;2023-02-13T01:39:52;54670.44;;;-144.73;99.33
73551;BME280;61816;53.582;10.096;2023-02-13T01:42:28;54604.75;;;-144.73;99.31
73551;BME280;61816;53.582;10.096;2023-02-13T01:44:56;54647.84;;;-144.73;99.59
73551;BME280;61816;53.582;10.096;2023-02-13T01:47:38;54658.13;;;-144.73;98.87
73551;BME280;61816;53.582;10.096;2023-02-13T01:50:19;54662.22;;;-144.73;98.36
73551;BME280;61816;53.582;10.096;2023-02-13T01:52:59;54674.53;;;-144.73;98.71
73551;BME280;61816;53.582;10.096;2023-02-13T01:55:26;54670.44;;;-144.73;98.07
73551;BME280;61816;53.582;10.096;2023-02-13T01:57:57;54643.75;;;-144.73;98.00
73551;BME280;61816;53.582;10.096;2023-02-13T02:00:24;54670.44;;;-144.73;97.64
73551;BME280;61816;53.582;10.096;2023-02-13T02:02:56;54690.97;;;-144.73;97.04
73551;BME280;61816;53.582;10.096;2023-02-13T02:05:25;54645.78;;;-144.73;97.28
73551;BME280;61816;53.582;10.096;2023-02-13T02:07:52;54678.63;;;-144.73;96.84
73551;BME280;61816;53.582;10.096;2023-02-13T02:10:19;54662.22;;;-144.73;96.96
73551;BME280;61816;53.582;10.096;2023-02-13T02:12:57;54662.22;;;-144.73;96.81
73551;BME280;61816;53.582;10.096;2023-02-13T02:15:23;54703.28;;;-144.73;96.55
73551;BME280;61816;53.582;10.096;2023-02-13T02:17:49;54631.44;;;-144.73;96.46
73551;BME280;61816;53.582;10.096;2023-02-13T02:20:28;54670.44;;;-144.73;95.72
73551;BME280;61816;53.582;10.096;2023-02-13T02:34:53;54645.78;;;-144.73;94.43
73551;BME280;61816;53.582;10.096;2023-02-13T02:40:43;54633.47;;;-144.73;93.14
73551;BME280;61816;53.582;10.096;2023-02-13T02:46:13;54670.44;;;-144.73;92.81
73551;BME280;61816;53.582;10.096;2023-02-13T02:48:47;54641.69;;;-144.73;92.59
73551;BME280;61816;53.582;10.096;2023-02-13T02:51:51;54674.53;;;-144.73;92.87
73551;BME280;61816;53.582;10.096;2023-02-13T02:54:48;54658.13;;;-144.73;92.81
73551;BME280;61816;53.582;10.096;2023-02-13T02:57:33;54678.63;;;-144.73;92.46
73551;BME280;61816;53.582;10.096;2023-02-13T03:00:22;54662.22;;;-144.73;93.13
73551;BME280;61816;53.582;10.096;2023-02-13T03:03:22;54629.38;;;-144.73;92.51
73551;BME280;61816;53.582;10.096;2023-02-13T03:06:29;54662.22;;;-144.73;92.01
73551;BME280;61816;53.582;10.096;2023-02-13T03:08:59;54641.69;;;-144.73;92.46
73551;BME280;61816;53.582;10.096;2023-02-13T03:11:48;54658.13;;;-144.73;92.23
73551;BME280;61816;53.582;10.096;2023-02-13T03:14:33;54674.53;;;-144.73;92.83
73551;BME280;61816;53.582;10.096;2023-02-13T03:16:58;54651.97;;;-144.73;91.75
73551;BME280;61816;53.582;10.096;2023-02-13T03:22:30;54617.06;;;-144.73;90.83
73551;BME280;61816;53.582;10.096;2023-02-13T03:27:58;54674.53;;;-144.73;90.59
73551;BME280;61816;53.582;10.096;2023-02-13T03:36:03;54629.38;;;-144.73;90.83
73551;BME280;61816;53.582;10.096;2023-02-13T03:39:06;54633.47;;;-144.73;91.60
73551;BME280;61816;53.582;10.096;2023-02-13T03:41:42;54686.84;;;-144.73;91.51
73551;BME280;61816;53.582;10.096;2023-02-13T03:44:26;54678.63;;;-144.73;91.47
73551;BME280;61816;53.582;10.096;2023-02-13T03:46:58;54678.63;;;-144.73;91.90
73551;BME280;61816;53.582;10.096;2023-02-13T03:49:39;54686.84;;;-144.73;91.70
73551;BME280;61816;53.582;10.096;2023-02-13T03:55:12;54658.13;;;-144.73;92.25
73551;BME280;61816;53.582;10.096;2023-02-13T03:58:06;54627.31;;;-144.73;92.20
73551;BME280;61816;53.582;10.096;2023-02-13T04:00:55;54670.44;;;-144.73;91.98
73551;BME280;61816;53.582;10.096;2023-02-13T04:03:30;54592.44;;;-144.73;92.43
73551;BME280;61816;53.582;10.096;2023-02-13T04:06:13;54637.59;;;-144.73;91.81
73551;BME280;61816;53.582;10.096;2023-02-13T04:08:40;54647.84;;;-144.73;91.52
73551;BME280;61816;53.582;10.096;2023-02-13T04:13:36;54670.44;;;-144.73;91.14
73551;BME280;61816;53.582;10.096;2023-02-13T04:16:17;54633.47;;;-144.73;91.48
73551;BME280;61816;53.582;10.096;2023-02-13T04:18:45;54610.91;;;-144.73;91.43
73551;BME280;61816;53.582;10.096;2023-02-13T04:21:12;54674.53;;;-144.73;90.26
73551;BME280;61816;53.582;10.096;2023-02-13T04:23:37;54641.69;;;-144.73;89.74
73551;BME280;61816;53.582;10.096;2023-02-13T04:26:07;54699.16;;;-144.73;89.95
73551;BME280;61816;53.582;10.096;2023-02-13T04:28:36;54660.16;;;-144.73;89.64
73551;BME280;61816;53.582;10.096;2023-02-13T04:31:01;54658.13;;;-144.73;89.80
73551;BME280;61816;53.582;10.096;2023-02-13T04:33:26;54627.31;;;-144.73;89.90
73551;BME280;61816;53.582;10.096;2023-02-13T04:35:52;54674.53;;;-144.73;89.57
73551;BME280;61816;53.582;10.096;2023-02-13T04:38:17;54633.47;;;-144.73;89.86
73551;BME280;61816;53.582;10.096;2023-02-13T04:40:42;54682.75;;;-144.73;89.08
73551;BME280;61816;53.582;10.096;2023-02-13T04:43:07;54629.38;;;-144.73;88.78
73551;BME280;61816;53.582;10.096;2023-02-13T04:45:33;54651.97;;;-144.73;89.18
73551;BME280;61816;53.582;10.096;2023-02-13T04:47:58;54682.75;;;-144.73;89.77
73551;BME280;61816;53.582;10.096;2023-02-13T04:50:25;54690.97;;;-144.73;90.05
73551;BME280;61816;53.582;10.096;2023-02-13T04:52:54;54641.69;;;-144.73;89.43
73551;BME280;61816;53.582;10.096;2023-02-13T04:55:21;54649.91;;;-144.73;89.22
73551;BME280;61816;53.582;10.096;2023-02-13T04:57:46;54670.44;;;-144.73;88.20
73551;BME280;61816;53.582;10.096;2023-02-13T05:00:13;54695.06;;;-144.73;87.60
73551;BME280;61816;53.582;10.096;2023-02-13T05:02:38;54637.59;;;-144.73;87.81
73551;BME280;61816;53.582;10.096;2023-02-13T05:05:04;54649.91;;;-144.73;87.80
73551;BME280;61816;53.582;10.096;2023-02-13T05:07:29;54629.38;;;-144.73;88.41
73551;BME280;61816;53.582;10.096;2023-02-13T05:09:54;54662.22;;;-144.73;87.34
73551;BME280;61816;53.582;10.096;2023-02-13T05:12:20;54629.38;;;-144.73;87.82
73551;BME280;61816;53.582;10.096;2023-02-13T05:14:45;54678.63;;;-144.73;88.11
73551;BME280;61816;53.582;10.096;2023-02-13T05:17:10;54674.53;;;-144.73;87.51
73551;BME280;61816;53.582;10.096;2023-02-13T05:19:36;54637.59;;;-144.73;87.53
73551;BME280;61816;53.582;10.096;2023-02-13T05:22:01;54662.22;;;-144.73;88.25
73551;BME280;61816;53.582;10.096;2023-02-13T05:24:45;54654.00;;;-144.73;88.29
73551;BME280;61816;53.582;10.096;2023-02-13T05:27:10;54658.13;;;-144.73;87.91
73551;BME280;61816;53.582;10.096;2023-02-13T05:29:36;54641.69;;;-144.73;87.59
73551;BME280;61816;53.582;10.096;2023-02-13T05:32:01;54631.44;;;-144.73;87.80
73551;BME280;61816;53.582;10.096;2023-02-13T05:34:27;54633.47;;;-144.73;87.78
73551;BME280;61816;53.582;10.096;2023-02-13T05:36:53;54693.00;;;-144.73;88.41
73551;BME280;61816;53.582;10.096;2023-02-13T05:39:19;54670.44;;;-144.73;87.46
73551;BME280;61816;53.582;10.096;2023-02-13T05:41:46;54637.59;;;-144.73;87.05
73551;BME280;61816;53.582;10.096;2023-02-13T05:44:12;54682.75;;;-144.73;86.82
73551;BME280;61816;53.582;10.096;2023-02-13T05:46:39;54682.75;;;-144.73;87.05
73551;BME280;61816;53.582;10.096;2023-02-13T05:49:05;54645.78;;;-144.73;86.68
73551;BME280;61816;53.582;10.096;2023-02-13T05:51:30;54656.06;;;-144.73;86.40
73551;BME280;61816;53.582;10.096;2023-02-13T05:53:56;54680.69;;;-144.73;86.40
73551;BME280;61816;53.582;10.096;2023-02-13T05:56:21;54690.97;;;-144.73;86.65
73551;BME280;61816;53.582;10.096;2023-02-13T05:58:50;54654.00;;;-144.73;86.26
73551;BME280;61816;53.582;10.096;2023-02-13T06:01:16;54672.47;;;-144.73;86.17
73551;BME280;61816;53.582;10.096;2023-02-13T06:03:41;54654.00;;;-144.73;86.41
73551;BME280;61816;53.582;10.096;2023-02-13T06:06:06;54662.22;;;-144.73;86.55
73551;BME280;61816;53.582;10.096;2023-02-13T06:08:32;54651.97;;;-144.73;85.70
73551;BME280;61816;53.582;10.096;2023-02-13T06:10:57;54670.44;;;-144.73;85.23
73551;BME280;61816;53.582;10.096;2023-02-13T06:13:23;54621.16;;;-144.73;85.76
73551;BME280;61816;53.582;10.096;2023-02-13T06:15:48;54682.75;;;-144.73;85.76
73551;BME280;61816;53.582;10.096;2023-02-13T06:18:15;54654.00;;;-144.73;86.25
73551;BME280;61816;53.582;10.096;2023-02-13T06:20:40;54682.75;;;-144.73;86.03
73551;BME280;61816;53.582;10.096;2023-02-13T06:23:05;54686.84;;;-144.73;86.86
73551;BME280;61816;53.582;10.096;2023-02-13T06:25:31;54658.13;;;-144.73;85.88
73551;BME280;61816;53.582;10.096;2023-02-13T06:27:58;54690.97;;;-144.73;85.85
73551;BME280;61816;53.582;10.096;2023-02-13T06:30:23;54670.44;;;-144.73;86.40
73551;BME280;61816;53.582;10.096;2023-02-13T06:32:48;54658.13;;;-144.73;85.93
73551;BME280;61816;53.582;10.096;2023-02-13T06:35:14;54654.00;;;-144.73;84.51
73551;BME280;61816;53.582;10.096;2023-02-13T06:37:41;54651.97;;;-144.73;85.21
73551;BME280;61816;53.582;10.096;2023-02-13T06:40:10;54629.38;;;-144.73;84.93
73551;BME280;61816;53.582;10.096;2023-02-13T06:42:36;54658.13;;;-144.73;84.24
73551;BME280;61816;53.582;10.096;2023-02-13T06:45:02;54656.06;;;-144.73;85.22
73551;BME280;61816;53.582;10.096;2023-02-13T06:47:27;54658.13;;;-144.73;85.30
73551;BME280;61816;53.582;10.096;2023-02-13T06:49:52;54670.44;;;-144.73;85.84
73551;BME280;61816;53.582;10.096;2023-02-13T06:52:18;54645.78;;;-144.73;85.62
73551;BME280;61816;53.582;10.096;2023-02-13T06:54:44;54625.28;;;-144.73;84.56
73551;BME280;61816;53.582;10.096;2023-02-13T06:57:09;54662.22;;;-144.73;84.61
73551;BME280;61816;53.582;10.096;2023-02-13T06:59:34;54621.16;;;-144.73;85.01
73551;BME280;61816;53.582;10.096;2023-02-13T07:02:00;54629.38;;;-144.73;84.51
73551;BME280;61816;53.582;10.096;2023-02-13T07:04:26;54612.97;;;-144.73;84.28
73551;BME280;61816;53.582;10.096;2023-02-13T07:06:54;54637.59;;;-144.73;84.38
73551;BME280;61816;53.582;10.096;2023-02-13T07:09:20;54649.91;;;-144.73;84.13
73551;BME280;61816;53.582;10.096;2023-02-13T07:11:45;54625.28;;;-144.73;83.72
73551;BME280;61816;53.582;10.096;2023-02-13T07:14:10;54678.63;;;-144.73;84.01
73551;BME280;61816;53.582;10.096;2023-02-13T07:16:36;54658.13;;;-144.73;84.00
73551;BME280;61816;53.582;10.096;2023-02-13T07:19:01;54637.59;;;-144.73;84.23
73551;BME280;61816;53.582;10.096;2023-02-13T07:21:26;54690.97;;;-144.73;84.96
73551;BME280;61816;53.582;10.096;2023-02-13T07:23:52;54682.75;;;-144.73;85.28
73551;BME280;61816;53.582;10.096;2023-02-13T07:26:17;54654.00;;;-144.73;84.83
73551;BME280;61816;53.582;10.096;2023-02-13T07:28:43;54672.47;;;-144.73;84.44
73551;BME280;61816;53.582;10.096;2023-02-13T07:31:08;54625.28;;;-144.73;84.67
73551;BME280;61816;53.582;10.096;2023-02-13T07:33:34;54629.38;;;-144.73;84.27
73551;BME280;61816;53.582;10.096;2023-02-13T07:36:00;54647.84;;;-144.73;84.57
73551;BME280;61816;53.582;10.096;2023-02-13T07:38:28;54629.38;;;-144.73;84.08
73551;BME280;61816;53.582;10.096;2023-02-13T07:41:00;54670.44;;;-144.73;83.38
73551;BME280;61816;53.582;10.096;2023-02-13T07:43:26;54625.28;;;-144.73;83.53
73551;BME280;61816;53.582;10.096;2023-02-13T07:45:51;54629.38;;;-144.73;83.43
73551;BME280;61816;53.582;10.096;2023-02-13T07:48:23;54637.59;;;-144.73;82.83
73551;BME280;61816;53.582;10.096;2023-02-13T07:50:49;54656.06;;;-144.73;82.49
73551;BME280;61816;53.582;10.096;2023-02-13T07:53:14;54641.69;;;-144.73;81.96
73551;BME280;61816;53.582;10.096;2023-02-13T07:55:40;54617.06;;;-144.73;81.48
73551;BME280;61816;53.582;10.096;2023-02-13T07:58:06;54637.59;;;-144.73;81.23
73551;BME280;61816;53.582;10.096;2023-02-13T08:00:31;54625.28;;;-144.73;81.83
73551;BME280;61816;53.582;10.096;2023-02-13T08:03:00;54639.63;;;-144.73;81.90
73551;BME280;61816;53.582;10.096;2023-02-13T08:05:27;54627.31;;;-144.73;82.43
73551;BME280;61816;53.582;10.096;2023-02-13T08:07:52;54674.53;;;-144.73;83.03
73551;BME280;61816;53.582;10.096;2023-02-13T08:10:18;54625.28;;;-144.73;84.10
73551;BME280;61816;53.582;10.096;2023-02-13T08:13:02;54654.00;;;-144.73;83.54
73551;BME280;61816;53.582;10.096;2023-02-13T08:15:28;54649.91;;;-144.73;83.43
73551;BME280;61816;53.582;10.096;2023-02-13T08:17:55;54637.59;;;-144.73;83.08
73551;BME280;61816;53.582;10.096;2023-02-13T08:20:20;54647.84;;;-144.73;82.84
73551;BME280;61816;53.582;10.096;2023-02-13T08:22:46;54654.00;;;-144.73;82.20
73551;BME280;61816;53.582;10.096;2023-02-13T08:25:11;54592.44;;;-144.73;81.64
73551;BME280;61816;53.582;10.096;2023-02-13T08:27:37;54629.38;;;-144.73;81.00
73551;BME280;61816;53.582;10.096;2023-02-13T08:30:03;54645.78;;;-144.73;81.14
73551;BME280;61816;53.582;10.096;2023-02-13T08:32:29;54654.00;;;-144.73;81.23
73551;BME280;61816;53.582;10.096;2023-02-13T08:34:54;54658.13;;;-144.73;81.50
73551;BME280;61816;53.582;10.096;2023-02-13T08:37:19;54608.84;;;-144.73;81.06
73551;BME280;61816;53.582;10.096;2023-02-13T08:39:45;54641.69;;;-144.73;82.50
73551;BME280;61816;53.582;10.096;2023-02-13T08:42:10;54645.78;;;-144.73;81.93
73551;BME280;61816;53.582;10.096;2023-02-13T08:44:35;54645.78;;;-144.73;81.28
73551;BME280;61816;53.582;10.096;2023-02-13T08:47:02;54629.38;;;-144.73;80.79
73551;BME280;61816;53.582;10.096;2023-02-13T08:49:29;54641.69;;;-144.73;80.39
73551;BME280;61816;53.582;10.096;2023-02-13T08:51:54;54612.97;;;-144.73;80.32
73551;BME280;61816;53.582;10.096;2023-02-13T08:54:19;54608.84;;;-144.73;79.28
73551;BME280;61816;53.582;10.096;2023-02-13T08:56:45;54619.13;;;-144.73;78.29
73551;BME280;61816;53.582;10.096;2023-02-13T08:59:10;54625.28;;;-144.73;77.59
73551;BME280;61816;53.582;10.096;2023-02-13T09:01:35;54637.59;;;-144.73;78.71
73551;BME280;61816;53.582;10.096;2023-02-13T09:04:01;54678.63;;;-144.73;78.98
73551;BME280;61816;53.582;10.096;2023-02-13T09:06:26;54612.97;;;-144.73;79.21
73551;BME280;61816;53.582;10.096;2023-02-13T09:08:53;54623.22;;;-144.73;78.04
73551;BME280;61816;53.582;10.096;2023-02-13T09:11:19;54645.78;;;-144.73;78.35
73551;BME280;61816;53.582;10.096;2023-02-13T09:13:48;54621.16;;;-144.73;79.17
73551;BME280;61816;53.582;10.096;2023-02-13T09:16:13;54627.31;;;-144.73;79.33
73551;BME280;61816;53.582;10.096;2023-02-13T09:18:39;54639.63;;;-144.73;79.36
73551;BME280;61816;53.582;10.096;2023-02-13T09:21:06;54662.22;;;-144.73;79.06
73551;BME280;61816;53.582;10.096;2023-02-13T09:23:34;54690.97;;;-144.73;78.80
73551;BME280;61816;53.582;10.096;2023-02-13T09:26:01;54637.59;;;-144.73;76.91
73551;BME280;61816;53.582;10.096;2023-02-13T09:28:28;54637.59;;;-144.73;78.78
73551;BME280;61816;53.582;10.096;2023-02-13T09:30:53;54633.47;;;-144.73;79.25
73551;BME280;61816;53.582;10.096;2023-02-13T09:33:19;54654.00;;;-144.73;79.01
73551;BME280;61816;53.582;10.096;2023-02-13T09:35:44;54641.69;;;-144.73;78.60
73551;BME280;61816;53.582;10.096;2023-02-13T09:38:10;54604.75;;;-144.73;78.61
73551;BME280;61816;53.582;10.096;2023-02-13T09:41:12;54633.47;;;-144.73;78.50
73551;BME280;61816;53.582;10.096;2023-02-13T09:43:34;54621.16;;;-144.73;77.85
73551;BME280;61816;53.582;10.096;2023-02-13T09:46:08;54641.69;;;-144.73;76.43
73551;BME280;61816;53.582;10.096;2023-02-13T09:48:38;54621.16;;;-144.73;76.62
73551;BME280;61816;53.582;10.096;2023-02-13T09:51:04;54649.91;;;-144.73;76.97
73551;BME280;61816;53.582;10.096;2023-02-13T09:53:30;54654.00;;;-144.73;76.03
73551;BME280;61816;53.582;10.096;2023-02-13T09:56:06;54633.47;;;-144.73;76.25
73551;BME280;61816;53.582;10.096;2023-02-13T09:58:45;54647.84;;;-144.73;74.80
73551;BME280;61816;53.582;10.096;2023-02-13T10:04:10;54643.75;;;-144.73;75.22
73551;BME280;61816;53.582;10.096;2023-02-13T10:06:43;54651.97;;;-144.73;75.97
73551;BME280;61816;53.582;10.096;2023-02-13T10:09:27;54604.75;;;-144.73;75.22
73551;BME280;61816;53.582;10.096;2023-02-13T10:12:36;54619.13;;;-144.73;75.26
73551;BME280;61816;53.582;10.096;2023-02-13T10:15:21;54633.47;;;-144.73;78.28
73551;BME280;61816;53.582;10.096;2023-02-13T10:17:57;54606.78;;;-144.73;77.51
73551;BME280;61816;53.582;10.096;2023-02-13T10:20:40;54615.00;;;-144.73;76.58
73551;BME280;61816;53.582;10.096;2023-02-13T10:23:28;54645.78;;;-144.73;77.07
73551;BME280;61816;53.582;10.096;2023-02-13T10:26:00;54641.69;;;-144.73;77.29
73551;BME280;61816;53.582;10.096;2023-02-13T10:28:30;54633.47;;;-144.73;78.35
73551;BME280;61816;53.582;10.096;2023-02-13T10:31:02;54658.13;;;-144.73;77.88
73551;BME280;61816;53.582;10.096;2023-02-13T10:33:30;54633.47;;;-144.73;78.80
73551;BME280;61816;53.582;10.096;2023-02-13T10:41:52;54580.13;;;-144.73;77.05
73551;BME280;61816;53.582;10.096;2023-02-13T10:44:43;54612.97;;;-144.73;76.94
73551;BME280;61816;53.582;10.096;2023-02-13T10:47:29;54631.44;;;-144.73;77.29
73551;BME280;61816;53.582;10.096;2023-02-13T10:52:49;54629.38;;;-144.73;77.17
73551;BME280;61816;53.582;10.096;2023-02-13T10:55:28;54625.28;;;-144.73;77.12
73551;BME280;61816;53.582;10.096;2023-02-13T10:58:07;54612.97;;;-144.73;76.78
73551;BME280;61816;53.582;10.096;2023-02-13T11:03:21;54604.75;;;-144.73;77.59
73551;BME280;61816;53.582;10.096;2023-02-13T11:05:47;54625.28;;;-144.73;75.90
73551;BME280;61816;53.582;10.096;2023-02-13T11:08:20;54625.28;;;-144.73;76.18
73551;BME280;61816;53.582;10.096;2023-02-13T11:10:46;54645.78;;;-144.73;76.08
73551;BME280;61816;53.582;10.096;2023-02-13T11:13:20;54596.53;;;-144.73;75.22
73551;BME280;61816;53.582;10.096;2023-02-13T11:16:06;54645.78;;;-144.73;75.02
73551;BME280;61816;53.582;10.096;2023-02-13T11:18:38;54608.84;;;-144.73;75.46
73551;BME280;61816;53.582;10.096;2023-02-13T11:21:16;54612.97;;;-144.73;74.46
73551;BME280;61816;53.582;10.096;2023-02-13T11:23:49;54658.13;;;-144.73;75.35
73551;BME280;61816;53.582;10.096;2023-02-13T11:26:22;54647.84;;;-144.73;75.32
73551;BME280;61816;53.582;10.096;2023-02-13T11:29:17;54615.00;;;-144.73;75.75
73551;BME280;61816;53.582;10.096;2023-02-13T11:31:41;54617.06;;;-144.73;75.91
73551;BME280;61816;53.582;10.096;2023-02-13T11:34:26;54606.78;;;-144.73;76.58
73551;BME280;61816;53.582;10.096;2023-02-13T11:36:53;54637.59;;;-144.73;75.90
73551;BME280;61816;53.582;10.096;2023-02-13T11:39:21;54645.78;;;-144.73;75.45
73551;BME280;61816;53.582;10.096;2023-02-13T11:41:47;54629.38;;;-144.73;75.00
73551;BME280;61816;53.582;10.096;2023-02-13T11:44:21;54610.91;;;-144.73;75.01
73551;BME280;61816;53.582;10.096;2023-02-13T11:46:50;54612.97;;;-144.73;76.76
73551;BME280;61816;53.582;10.096;2023-02-13T11:49:20;54621.16;;;-144.73;76.21
73551;BME280;61816;53.582;10.096;2023-02-13T11:51:52;54641.69;;;-144.73;75.46
73551;BME280;61816;53.582;10.096;2023-02-13T11:54:40;54617.06;;;-144.73;74.94
73551;BME280;61816;53.582;10.096;2023-02-13T11:57:31;54658.13;;;-144.73;75.53
73551;BME280;61816;53.582;10.096;2023-02-13T11:59:58;54625.28;;;-144.73;75.29
73551;BME280;61816;53.582;10.096;2023-02-13T12:02:27;54604.75;;;-144.73;74.03
73551;BME280;61816;53.582;10.096;2023-02-13T12:05:13;54633.47;;;-144.73;74.71
73551;BME280;61816;53.582;10.096;2023-02-13T12:07:40;54617.06;;;-144.73;74.49
73551;BME280;61816;53.582;10.096;2023-02-13T12:12:44;54674.53;;;-144.73;76.85
73551;BME280;61816;53.582;10.096;2023-02-13T12:15:20;54637.59;;;-144.73;75.88
73551;BME280;61816;53.582;10.096;2023-02-13T12:17:53;54621.16;;;-144.73;75.79
73551;BME280;61816;53.582;10.096;2023-02-13T12:20:23;54629.38;;;-144.73;77.08
73551;BME280;61816;53.582;10.096;2023-02-13T12:23:08;54633.47;;;-144.73;76.13
73551;BME280;61816;53.582;10.096;2023-02-13T12:34:24;54615.00;;;-144.73;78.46
73551;BME280;61816;53.582;10.096;2023-02-13T12:40:10;54633.47;;;-144.73;77.93
73551;BME280;61816;53.582;10.096;2023-02-13T12:46:03;54625.28;;;-144.73;78.97
73551;BME280;61816;53.582;10.096;2023-02-13T12:51:32;54633.47;;;-144.73;77.98
73551;BME280;61816;53.582;10.096;2023-02-13T12:54:22;54617.06;;;-144.73;78.66
73551;BME280;61816;53.582;10.096;2023-02-13T13:02:55;54615.00;;;-144.73;79.51
73551;BME280;61816;53.582;10.096;2023-02-13T13:14:30;54576.00;;;-144.73;79.03
73551;BME280;61816;53.582;10.096;2023-02-13T13:22:20;54608.84;;;-144.73;78.31
73551;BME280;61816;53.582;10.096;2023-02-13T13:25:02;54631.44;;;-144.73;77.19
73551;BME280;61816;53.582;10.096;2023-02-13T13:27:31;54600.63;;;-144.73;77.36
73551;BME280;61816;53.582;10.096;2023-02-13T13:30:12;54604.75;;;-144.73;78.99
73551;BME280;61816;53.582;10.096;2023-02-13T13:32:41;54637.59;;;-144.73;78.74
73551;BME280;61816;53.582;10.096;2023-02-13T13:35:18;54612.97;;;-144.73;79.63
73551;BME280;61816;53.582;10.096;2023-02-13T13:37:50;54633.47;;;-144.73;79.48
73551;BME280;61816;53.582;10.096;2023-02-13T13:43:17;54641.69;;;-144.73;79.58
73551;BME280;61816;53.582;10.096;2023-02-13T13:46:02;54621.16;;;-144.73;79.54
73551;BME280;61816;53.582;10.096;2023-02-13T13:51:20;54625.28;;;-144.73;79.26
73551;BME280;61816;53.582;10.096;2023-02-13T14:07:38;54596.53;;;-144.73;77.98
73551;BME280;61816;53.582;10.096;2023-02-13T14:12:47;54580.13;;;-144.73;77.02
73551;BME280;61816;53.582;10.096;2023-02-13T14:18:22;54602.69;;;-144.73;77.20
73551;BME280;61816;53.582;10.096;2023-02-13T14:21:00;54637.59;;;-144.73;76.55
73551;BME280;61816;53.582;10.096;2023-02-13T14:23:43;54608.84;;;-144.73;75.91
73551;BME280;61816;53.582;10.096;2023-02-13T14:28:55;54600.63;;;-144.73;77.17
73551;BME280;61816;53.582;10.096;2023-02-13T14:32:13;54608.84;;;-144.73;76.66
73551;BME280;61816;53.582;10.096;2023-02-13T14:34:37;54670.44;;;-144.73;75.68
73551;BME280;61816;53.582;10.096;2023-02-13T14:39:35;54584.22;;;-144.73;76.95
73551;BME280;61816;53.582;10.096;2023-02-13T14:42:03;54641.69;;;-144.73;76.29
73551;BME280;61816;53.582;10.096;2023-02-13T14:47:13;54658.13;;;-144.73;76.60
73551;BME280;61816;53.582;10.096;2023-02-13T14:49:42;54637.59;;;-144.73;76.99